KJXN/JXN METAR and TAF weather

Enter ICAO airport designator
Station Type Date Time Source
KJXN METAR 2022/06/28 22:56 UTC NOAA

KJXN 282256Z 21007KT 10SM CLR 26/08 A3016 RMK AO2 SLP211 T02610078


Station Type Date Time Source
KJXN Decoded METAR 2022/06/28 22:56 UTC NOAA

JACKSON COUNTY-REYNOLDS, MI, United States (KJXN) 42-16N 084-28W
Jun 28, 2022 - 06:56 PM EDT / 2022.06.28 2256 UTC
Wind: from the SSW (210 degrees) at 8 MPH (7 KT):0
Visibility: 10 mile(s):0
Sky conditions: clear
Temperature: 79.0 F (26.1 C)
Dew Point: 46.0 F (7.8 C)
Relative Humidity: 31%
Pressure (altimeter): 30.16 in. Hg (1021 hPa)
ob: KJXN 282256Z 21007KT 10SM CLR 26/08 A3016 RMK AO2 SLP211 T02610078
cycle: 23

Station Type Date Time Source
KJXN TAF 2022/06/28 18:33 UTC NOAA

TAF KJXN 281730Z 2818/2918 VRB03KT P6SM SKC
FM290800 20006KT P6SM VCSH BKN120
FM291200 20006KT P6SM BKN080
FM291500 25008KT P6SM SCT035

Example: see airport list